createdAt,value
2022-09-14T00:01:14.382Z,13
2022-09-14T00:01:53.866Z,13
2022-09-14T00:02:53.913Z,14
2022-09-14T00:03:53.761Z,13
2022-09-14T00:04:53.746Z,14
2022-09-14T00:05:53.776Z,14
2022-09-14T00:06:53.837Z,14
2022-09-14T00:07:53.770Z,14
2022-09-14T00:08:53.789Z,14
2022-09-14T00:09:53.757Z,13
2022-09-14T00:10:53.746Z,14
2022-09-14T00:11:53.759Z,14
2022-09-14T00:12:53.755Z,14
2022-09-14T00:13:53.772Z,14
2022-09-14T00:14:53.768Z,14
2022-09-14T00:15:53.760Z,14
2022-09-14T00:16:53.868Z,15
2022-09-14T00:17:53.756Z,15
2022-09-14T00:18:53.774Z,15
2022-09-14T00:19:53.796Z,14
2022-09-14T00:20:53.764Z,13
2022-09-14T00:21:53.769Z,14
2022-09-14T00:22:53.766Z,15
2022-09-14T00:23:53.762Z,14
2022-09-14T00:24:53.846Z,13
2022-09-14T00:25:53.767Z,14
2022-09-14T00:26:53.763Z,14
2022-09-14T00:27:53.759Z,14
2022-09-14T00:28:53.778Z,15
2022-09-14T00:29:53.762Z,14
2022-09-14T00:30:53.793Z,15
2022-09-14T00:31:53.876Z,14
2022-09-14T00:32:53.763Z,15
2022-09-14T00:33:53.774Z,14
2022-09-14T00:34:53.760Z,14
2022-09-14T00:35:53.762Z,15
2022-09-14T00:36:53.811Z,15
2022-09-14T00:37:53.763Z,15
2022-09-14T00:38:53.788Z,15
2022-09-14T00:39:53.821Z,15
2022-09-14T00:40:53.762Z,15
2022-09-14T00:41:53.812Z,17
2022-09-14T00:42:53.770Z,17
2022-09-14T00:43:53.776Z,16
2022-09-14T00:44:53.774Z,16
2022-09-14T00:45:53.877Z,16
2022-09-14T00:46:53.760Z,16
2022-09-14T00:47:53.767Z,16
2022-09-14T00:48:53.793Z,17
2022-09-14T00:49:53.767Z,16
2022-09-14T00:50:53.754Z,16
2022-09-14T00:51:53.771Z,15
2022-09-14T00:52:53.791Z,15
2022-09-14T00:53:53.768Z,15
2022-09-14T00:54:53.767Z,15
2022-09-14T00:55:53.762Z,15
2022-09-14T00:56:53.778Z,15
2022-09-14T00:57:53.760Z,15
2022-09-14T00:58:53.834Z,15
2022-09-14T00:59:53.785Z,16
2022-09-14T01:00:53.834Z,15
2022-09-14T01:01:53.841Z,15
2022-09-14T01:02:53.767Z,16
2022-09-14T01:03:53.841Z,16
2022-09-14T01:04:53.787Z,15
2022-09-14T01:05:53.777Z,15
2022-09-14T01:06:53.782Z,16
2022-09-14T01:07:53.885Z,15
2022-09-14T01:08:53.773Z,15
2022-09-14T01:09:53.792Z,16
2022-09-14T01:10:53.759Z,16
2022-09-14T01:11:53.766Z,15
2022-09-14T01:12:53.791Z,16
2022-09-14T01:13:53.790Z,16
2022-09-14T01:14:53.778Z,16
2022-09-14T01:15:53.784Z,16
2022-09-14T01:16:53.940Z,15
2022-09-14T01:17:53.785Z,15
2022-09-14T01:18:53.774Z,16
2022-09-14T01:19:53.799Z,16
2022-09-14T01:20:53.790Z,16
2022-09-14T01:21:53.786Z,16
2022-09-14T01:22:53.777Z,16
2022-09-14T01:23:53.773Z,15
2022-09-14T01:24:53.764Z,15
2022-09-14T01:25:53.786Z,16
2022-09-14T01:26:53.767Z,15
2022-09-14T01:27:53.767Z,15
2022-09-14T01:28:53.801Z,15
2022-09-14T01:29:53.781Z,16
2022-09-14T01:30:53.778Z,15
2022-09-14T01:32:53.776Z,15
2022-09-14T01:33:53.796Z,15
2022-09-14T01:34:53.785Z,15
2022-09-14T01:35:53.776Z,16
2022-09-14T01:36:53.804Z,16
2022-09-14T01:37:53.759Z,15
2022-09-14T01:38:53.911Z,16
2022-09-14T01:39:53.850Z,15
2022-09-14T01:40:53.769Z,16
2022-09-14T01:41:53.768Z,16
2022-09-14T01:42:53.780Z,15
2022-09-14T01:43:53.812Z,15
2022-09-14T01:44:53.794Z,15
2022-09-14T01:45:53.838Z,16
2022-09-14T01:46:53.794Z,16
2022-09-14T01:47:53.791Z,15
2022-09-14T01:48:53.789Z,15
2022-09-14T01:49:53.778Z,15
2022-09-14T01:50:53.803Z,15
2022-09-14T01:51:53.796Z,15
2022-09-14T01:52:53.784Z,15
2022-09-14T01:53:53.790Z,15
2022-09-14T01:54:53.779Z,14
2022-09-14T01:55:53.798Z,15
2022-09-14T01:56:53.782Z,14
2022-09-14T01:57:53.784Z,14
2022-09-14T01:58:53.805Z,15
2022-09-14T01:59:53.788Z,13
2022-09-14T02:00:53.881Z,14
2022-09-14T02:01:53.856Z,14
2022-09-14T02:02:53.786Z,14
2022-09-14T02:03:53.797Z,15
2022-09-14T02:04:53.810Z,14
2022-09-14T02:05:53.793Z,14
2022-09-14T02:06:53.806Z,15
2022-09-14T02:07:53.814Z,15
2022-09-14T02:08:53.824Z,14
2022-09-14T02:09:53.822Z,15
2022-09-14T02:10:53.777Z,15
2022-09-14T02:11:53.787Z,15
2022-09-14T02:12:53.799Z,16
2022-09-14T02:13:53.791Z,15
2022-09-14T02:14:53.791Z,16
2022-09-14T02:15:53.806Z,15
2022-09-14T02:16:53.816Z,15
2022-09-14T02:17:53.815Z,15
2022-09-14T02:18:53.804Z,16
2022-09-14T02:19:53.787Z,16
2022-09-14T02:20:53.796Z,15
2022-09-14T02:21:53.891Z,15
2022-09-14T02:22:53.792Z,15
2022-09-14T02:23:53.784Z,16
2022-09-14T02:24:53.789Z,16
2022-09-14T02:25:53.794Z,14
2022-09-14T02:26:53.783Z,15
2022-09-14T02:27:53.798Z,15
2022-09-14T02:28:53.793Z,16
2022-09-14T02:29:53.791Z,15
2022-09-14T02:30:53.790Z,15
2022-09-14T02:31:53.873Z,15
2022-09-14T02:32:53.805Z,15
2022-09-14T02:33:53.789Z,16
2022-09-14T02:34:53.788Z,15
2022-09-14T02:35:53.792Z,16
2022-09-14T02:36:53.823Z,14
2022-09-14T02:37:53.796Z,14
2022-09-14T02:38:53.847Z,15
2022-09-14T02:39:53.827Z,15
2022-09-14T02:40:53.823Z,15
2022-09-14T02:41:53.792Z,15
2022-09-14T02:42:53.798Z,14
2022-09-14T02:43:53.801Z,15
2022-09-14T02:44:53.800Z,15
2022-09-14T02:45:53.787Z,15
2022-09-14T02:46:53.892Z,15
2022-09-14T02:47:53.790Z,15
2022-09-14T02:48:53.804Z,15
2022-09-14T02:49:53.827Z,16
2022-09-14T02:50:53.795Z,15
2022-09-14T02:51:53.806Z,15
2022-09-14T02:52:53.787Z,15
2022-09-14T02:53:53.803Z,16
2022-09-14T02:54:53.810Z,15
2022-09-14T02:55:53.788Z,15
2022-09-14T02:56:53.795Z,15
2022-09-14T02:57:53.811Z,15
2022-09-14T02:58:53.856Z,15
2022-09-14T02:59:53.792Z,15
2022-09-14T03:00:53.825Z,14
2022-09-14T03:01:53.866Z,15
2022-09-14T03:02:53.803Z,15
2022-09-14T03:03:53.817Z,15
2022-09-14T03:04:53.804Z,15
2022-09-14T03:05:53.809Z,15
2022-09-14T03:06:53.811Z,15
2022-09-14T03:07:53.783Z,15
2022-09-14T03:08:53.831Z,16
2022-09-14T03:09:53.794Z,15
2022-09-14T03:10:53.806Z,16
2022-09-14T03:11:53.874Z,15
2022-09-14T03:12:53.802Z,15
2022-09-14T03:13:53.821Z,14
2022-09-14T03:14:53.817Z,15
2022-09-14T03:15:53.861Z,15
2022-09-14T03:16:53.807Z,16
2022-09-14T03:17:53.804Z,15
2022-09-14T03:18:53.827Z,16
2022-09-14T03:19:53.840Z,16
2022-09-14T03:20:53.801Z,17
2022-09-14T03:21:53.833Z,15
2022-09-14T03:22:53.824Z,15
2022-09-14T03:23:53.810Z,14
2022-09-14T03:24:53.830Z,16
2022-09-14T03:25:53.810Z,15
2022-09-14T03:26:53.802Z,15
2022-09-14T03:27:53.801Z,15
2022-09-14T03:28:53.834Z,15
2022-09-14T03:29:53.801Z,15
2022-09-14T03:30:53.853Z,15
2022-09-14T03:31:53.929Z,16
2022-09-14T03:32:53.815Z,16
2022-09-14T03:33:53.811Z,15
2022-09-14T03:34:53.822Z,15
2022-09-14T03:35:53.811Z,15
2022-09-14T03:36:53.828Z,15
2022-09-14T03:37:53.818Z,15
2022-09-14T03:38:53.838Z,14
2022-09-14T03:39:53.851Z,15
2022-09-14T03:40:53.816Z,15
2022-09-14T03:41:53.852Z,15
2022-09-14T03:42:53.920Z,14
2022-09-14T03:43:53.824Z,15
2022-09-14T03:44:53.815Z,15
2022-09-14T03:45:53.806Z,15
2022-09-14T03:46:53.897Z,14
2022-09-14T03:47:53.818Z,15
2022-09-14T03:48:53.836Z,15
2022-09-14T03:49:53.800Z,16
2022-09-14T03:50:53.802Z,14
2022-09-14T03:51:57.757Z,16
2022-09-14T03:52:53.797Z,14
2022-09-14T03:53:53.839Z,15
2022-09-14T03:54:53.808Z,15
2022-09-14T03:55:53.805Z,15
2022-09-14T03:56:53.821Z,14
2022-09-14T03:57:53.821Z,15
2022-09-14T03:58:53.858Z,14
2022-09-14T03:59:53.817Z,15
2022-09-14T04:00:53.847Z,15
2022-09-14T04:01:53.839Z,14
2022-09-14T04:02:53.877Z,15
2022-09-14T04:03:53.879Z,15
2022-09-14T04:04:53.811Z,15
2022-09-14T04:05:53.821Z,15
2022-09-14T04:06:53.812Z,14
2022-09-14T04:07:53.833Z,16
2022-09-14T04:08:53.846Z,14
2022-09-14T04:09:53.811Z,15
2022-09-14T04:10:53.817Z,15
2022-09-14T04:11:53.810Z,15
2022-09-14T04:12:53.814Z,15
2022-09-14T04:13:53.890Z,15
2022-09-14T04:14:53.811Z,14
2022-09-14T04:15:53.934Z,14
2022-09-14T04:16:53.821Z,15
2022-09-14T04:17:53.817Z,15
2022-09-14T04:18:53.833Z,15
2022-09-14T04:19:53.817Z,15
2022-09-14T04:20:53.818Z,15
2022-09-14T04:21:53.813Z,14
2022-09-14T04:22:53.829Z,14
2022-09-14T04:24:18.008Z,14
2022-09-14T04:24:53.813Z,15
2022-09-14T04:25:53.830Z,15
2022-09-14T04:26:53.816Z,14
2022-09-14T04:28:16.803Z,14
2022-09-14T04:28:53.840Z,14
2022-09-14T04:29:53.822Z,14
2022-09-14T04:30:53.865Z,14
2022-09-14T04:31:53.831Z,14
2022-09-14T04:32:53.863Z,13
2022-09-14T04:33:53.834Z,13
2022-09-14T04:34:53.837Z,13
2022-09-14T04:35:53.833Z,13
2022-09-14T04:36:53.822Z,14
2022-09-14T04:37:53.835Z,13
2022-09-14T04:38:53.835Z,13
2022-09-14T04:39:53.875Z,13
2022-09-14T04:40:53.836Z,14
2022-09-14T04:41:53.831Z,13
2022-09-14T04:42:53.817Z,14
2022-09-14T04:43:53.837Z,14
2022-09-14T04:44:53.924Z,14
2022-09-14T04:45:53.824Z,14
2022-09-14T04:46:53.931Z,14
2022-09-14T04:47:53.841Z,14
2022-09-14T04:48:53.844Z,13
2022-09-14T04:49:53.882Z,13
2022-09-14T04:50:53.824Z,14
2022-09-14T04:51:53.829Z,14
2022-09-14T04:52:53.831Z,14
2022-09-14T04:53:53.834Z,14
2022-09-14T04:54:53.827Z,13
2022-09-14T04:55:53.818Z,14
2022-09-14T04:56:53.832Z,14
2022-09-14T04:57:53.845Z,13
2022-09-14T04:58:53.842Z,13
2022-09-14T04:59:53.846Z,13
2022-09-14T05:00:53.837Z,13
2022-09-14T05:01:53.941Z,14
2022-09-14T05:02:53.901Z,14
2022-09-14T05:03:53.858Z,13
2022-09-14T05:04:53.837Z,13
2022-09-14T05:05:53.833Z,14
2022-09-14T05:06:53.833Z,13
2022-09-14T05:07:53.849Z,13
2022-09-14T05:08:53.848Z,14
2022-09-14T05:09:53.821Z,14
2022-09-14T05:10:53.824Z,13
2022-09-14T05:11:53.864Z,13
2022-09-14T05:12:53.833Z,13
2022-09-14T05:13:53.840Z,13
2022-09-14T05:14:53.841Z,12
2022-09-14T05:15:53.970Z,13
2022-09-14T05:16:53.821Z,13
2022-09-14T05:17:53.843Z,13
2022-09-14T05:18:53.852Z,13
2022-09-14T05:19:53.828Z,13
2022-09-14T05:20:53.827Z,13
2022-09-14T05:21:53.835Z,13
2022-09-14T05:22:53.841Z,14
2022-09-14T05:23:53.853Z,12
2022-09-14T05:24:53.839Z,13
2022-09-14T05:25:53.830Z,13
2022-09-14T05:26:57.101Z,14
2022-09-14T05:27:53.830Z,13
2022-09-14T05:28:53.876Z,13
2022-09-14T05:29:53.840Z,13
2022-09-14T05:30:53.883Z,14
2022-09-14T05:31:53.835Z,13
2022-09-14T05:32:57.543Z,14
2022-09-14T05:33:53.848Z,13
2022-09-14T05:34:53.834Z,14
2022-09-14T05:35:53.834Z,14
2022-09-14T05:36:53.839Z,14
2022-09-14T05:37:53.860Z,14
2022-09-14T05:38:53.854Z,12
2022-09-14T05:39:53.895Z,13
2022-09-14T05:40:53.847Z,14
2022-09-14T05:41:53.839Z,13
2022-09-14T05:42:53.825Z,13
2022-09-14T05:43:53.851Z,13
2022-09-14T05:44:53.840Z,13
2022-09-14T05:45:53.912Z,13
2022-09-14T05:46:53.977Z,13
2022-09-14T05:47:53.847Z,13
2022-09-14T05:48:53.854Z,13
2022-09-14T05:50:53.859Z,13
2022-09-14T05:51:53.839Z,13
2022-09-14T05:52:53.857Z,14
2022-09-14T05:53:53.875Z,14
2022-09-14T05:54:53.841Z,13
2022-09-14T05:55:53.834Z,13
2022-09-14T05:56:53.866Z,13
2022-09-14T05:57:53.851Z,13
2022-09-14T05:58:53.860Z,13
2022-09-14T05:59:53.831Z,13
2022-09-14T06:00:53.858Z,13
2022-09-14T06:01:53.895Z,13
2022-09-14T06:02:53.851Z,13
2022-09-14T06:03:53.867Z,12
2022-09-14T06:04:53.921Z,12
2022-09-14T06:05:53.846Z,13
2022-09-14T06:07:14.851Z,13
2022-09-14T06:07:53.856Z,13
2022-09-14T06:08:53.884Z,12
2022-09-14T06:09:53.844Z,13
2022-09-14T06:10:53.840Z,13
2022-09-14T06:11:53.843Z,13
2022-09-14T06:12:55.607Z,13
2022-09-14T06:13:53.858Z,15
2022-09-14T06:14:53.865Z,14
2022-09-14T06:15:53.844Z,15
2022-09-14T06:16:53.843Z,15
2022-09-14T06:17:53.959Z,14
2022-09-14T06:18:53.873Z,15
2022-09-14T06:19:53.837Z,14
2022-09-14T06:20:53.826Z,14
2022-09-14T06:21:53.844Z,14
2022-09-14T06:22:53.851Z,14
2022-09-14T06:23:53.861Z,13
2022-09-14T06:24:53.843Z,14
2022-09-14T06:25:53.852Z,13
2022-09-14T06:26:53.850Z,14
2022-09-14T06:27:53.853Z,14
2022-09-14T06:28:53.867Z,14
2022-09-14T06:29:53.846Z,13
2022-09-14T06:30:53.842Z,13
2022-09-14T06:31:53.852Z,14
2022-09-14T06:32:53.857Z,13
2022-09-14T06:33:53.863Z,14
2022-09-14T06:34:53.844Z,14
2022-09-14T06:35:53.853Z,14
2022-09-14T06:36:53.915Z,13
2022-09-14T06:37:53.873Z,14
2022-09-14T06:38:53.877Z,13
2022-09-14T06:39:53.893Z,13
2022-09-14T06:40:53.840Z,13
2022-09-14T06:41:53.840Z,13
2022-09-14T06:42:53.852Z,13
2022-09-14T06:43:53.866Z,13
2022-09-14T06:44:53.846Z,13
2022-09-14T06:45:53.846Z,13
2022-09-14T06:46:53.861Z,13
2022-09-14T06:47:53.850Z,13
2022-09-14T06:48:53.963Z,13
2022-09-14T06:49:53.852Z,13
2022-09-14T06:50:53.873Z,12
2022-09-14T06:51:53.851Z,13
2022-09-14T06:52:53.881Z,13
2022-09-14T06:53:53.962Z,13
2022-09-14T06:54:53.847Z,14
2022-09-14T06:55:53.852Z,13
2022-09-14T06:56:53.852Z,13
2022-09-14T06:57:53.857Z,12
2022-09-14T06:58:53.863Z,12
2022-09-14T06:59:53.843Z,12
2022-09-14T07:00:53.860Z,13
2022-09-14T07:01:53.860Z,12
2022-09-14T07:02:55.757Z,12
2022-09-14T07:03:53.874Z,12
2022-09-14T07:04:53.857Z,13
2022-09-14T07:05:53.851Z,12
2022-09-14T07:06:53.848Z,12
2022-09-14T07:07:53.881Z,12
2022-09-14T07:08:53.865Z,13
2022-09-14T07:09:53.860Z,12
2022-09-14T07:10:53.933Z,13
2022-09-14T07:11:53.862Z,13
2022-09-14T07:12:53.857Z,13
2022-09-14T07:13:53.889Z,12
2022-09-14T07:14:53.862Z,12
2022-09-14T07:15:53.853Z,13
2022-09-14T07:16:53.864Z,12
2022-09-14T07:17:53.926Z,12
2022-09-14T07:18:53.870Z,12
2022-09-14T07:19:53.979Z,12
2022-09-14T07:20:53.861Z,12
2022-09-14T07:21:53.869Z,13
2022-09-14T07:22:53.892Z,12
2022-09-14T07:23:53.883Z,12
2022-09-14T07:24:53.858Z,12
2022-09-14T07:25:53.866Z,12
2022-09-14T07:26:53.857Z,12
2022-09-14T07:27:53.888Z,12
2022-09-14T07:28:53.887Z,12
2022-09-14T07:29:53.858Z,11
2022-09-14T07:30:58.338Z,11
2022-09-14T07:31:53.878Z,12
2022-09-14T07:32:53.860Z,12
2022-09-14T07:33:53.981Z,11
2022-09-14T07:34:53.854Z,13
2022-09-14T07:35:53.859Z,12
2022-09-14T07:36:53.865Z,12
2022-09-14T07:37:53.884Z,12
2022-09-14T07:38:54.049Z,11
2022-09-14T07:39:53.940Z,12
2022-09-14T07:40:53.853Z,11
2022-09-14T07:41:53.866Z,12
2022-09-14T07:42:57.413Z,11
2022-09-14T07:43:53.919Z,12
2022-09-14T07:44:53.868Z,11
2022-09-14T07:45:54.000Z,12
2022-09-14T07:46:53.857Z,11
2022-09-14T07:47:53.891Z,11
2022-09-14T07:48:53.881Z,11
2022-09-14T07:49:53.864Z,11
2022-09-14T07:50:53.902Z,11
2022-09-14T07:51:53.877Z,10
2022-09-14T07:52:53.878Z,11
2022-09-14T07:53:53.872Z,10
2022-09-14T07:54:53.867Z,11
2022-09-14T07:55:53.857Z,11
2022-09-14T07:56:53.880Z,11
2022-09-14T07:57:56.599Z,11
2022-09-14T07:58:55.403Z,10
2022-09-14T07:59:53.866Z,10
2022-09-14T08:00:53.938Z,9
2022-09-14T08:01:53.994Z,10
2022-09-14T08:02:53.963Z,10
2022-09-14T08:03:53.900Z,10
2022-09-14T08:04:53.868Z,10
2022-09-14T08:05:53.876Z,10
2022-09-14T08:06:53.926Z,9
2022-09-14T08:07:53.893Z,9
2022-09-14T08:08:53.943Z,10
2022-09-14T08:09:53.880Z,9
2022-09-14T08:10:53.892Z,9
2022-09-14T08:11:53.884Z,9
2022-09-14T08:12:53.889Z,9
2022-09-14T08:13:53.870Z,9
2022-09-14T08:14:53.876Z,9
2022-09-14T08:15:53.938Z,10
2022-09-14T08:16:54.008Z,9
2022-09-14T08:17:53.885Z,9
2022-09-14T08:18:53.926Z,8
2022-09-14T08:19:53.875Z,8
2022-09-14T08:20:53.874Z,9
2022-09-14T08:21:53.991Z,8
2022-09-14T08:22:53.897Z,8
2022-09-14T08:23:53.936Z,8
2022-09-14T08:24:53.869Z,8
2022-09-14T08:25:53.878Z,8
2022-09-14T08:26:53.891Z,8
2022-09-14T08:27:53.912Z,8
2022-09-14T08:28:53.885Z,8
2022-09-14T08:29:53.892Z,8
2022-09-14T08:30:53.880Z,7
2022-09-14T08:31:53.938Z,7
2022-09-14T08:32:53.953Z,7
2022-09-14T08:33:53.892Z,7
2022-09-14T08:34:53.887Z,8
2022-09-14T08:35:57.943Z,7
2022-09-14T08:36:53.877Z,7
2022-09-14T08:37:53.887Z,7
2022-09-14T08:38:53.900Z,6
2022-09-14T08:39:53.963Z,7
2022-09-14T08:40:53.881Z,7
2022-09-14T08:41:53.867Z,7
2022-09-14T08:42:53.907Z,7
2022-09-14T08:43:53.938Z,7
2022-09-14T08:44:53.882Z,7
2022-09-14T08:45:53.953Z,7
2022-09-14T08:46:53.874Z,8
2022-09-14T08:47:53.889Z,7
2022-09-14T08:49:53.883Z,7
2022-09-14T08:50:53.896Z,7
2022-09-14T08:51:53.878Z,7
2022-09-14T08:52:53.926Z,7
2022-09-14T08:53:53.880Z,7
2022-09-14T08:54:53.879Z,8
2022-09-14T08:55:53.878Z,7
2022-09-14T08:56:53.885Z,7
2022-09-14T08:57:53.885Z,7
2022-09-14T08:58:54.050Z,7
2022-09-14T08:59:53.884Z,6
2022-09-14T09:00:54.041Z,7
2022-09-14T09:01:53.884Z,7
2022-09-14T09:02:53.876Z,7
2022-09-14T09:03:53.985Z,7
2022-09-14T09:04:53.901Z,7
2022-09-14T09:05:53.888Z,7
2022-09-14T09:06:53.908Z,7
2022-09-14T09:07:53.888Z,7
2022-09-14T09:08:53.901Z,6
2022-09-14T09:09:53.872Z,7
2022-09-14T09:10:53.877Z,6
2022-09-14T09:11:53.943Z,6
2022-09-14T09:12:53.902Z,6
2022-09-14T09:13:53.884Z,5
2022-09-14T09:14:53.887Z,5
2022-09-14T09:15:53.980Z,5
2022-09-14T09:16:53.898Z,5
2022-09-14T09:17:53.892Z,5
2022-09-14T09:18:53.893Z,5
2022-09-14T09:19:53.898Z,5
2022-09-14T09:20:53.875Z,5
2022-09-14T09:21:53.882Z,4
2022-09-14T09:22:53.898Z,4
2022-09-14T09:23:54.000Z,4
2022-09-14T09:24:53.890Z,4
2022-09-14T09:25:53.896Z,5
2022-09-14T09:26:53.884Z,5
2022-09-14T09:27:53.894Z,4
2022-09-14T09:28:53.892Z,4
2022-09-14T09:29:53.889Z,4
2022-09-14T09:30:53.890Z,4
2022-09-14T09:31:53.918Z,4
2022-09-14T09:32:53.899Z,5
2022-09-14T09:33:53.884Z,4
2022-09-14T09:34:53.888Z,4
2022-09-14T09:35:53.887Z,5
2022-09-14T09:36:53.885Z,4
2022-09-14T09:37:53.893Z,4
2022-09-14T09:38:53.886Z,5
2022-09-14T09:39:53.958Z,4
2022-09-14T09:40:53.887Z,5
2022-09-14T09:41:53.886Z,5
2022-09-14T09:42:53.900Z,5
2022-09-14T09:43:53.907Z,5
2022-09-14T09:44:56.039Z,5
2022-09-14T09:45:53.892Z,5
2022-09-14T09:46:54.001Z,5
2022-09-14T09:47:53.915Z,5
2022-09-14T09:48:53.902Z,5
2022-09-14T09:49:53.894Z,5
2022-09-14T09:50:53.886Z,5
2022-09-14T09:51:53.904Z,5
2022-09-14T09:52:53.901Z,5
2022-09-14T09:53:53.888Z,5
2022-09-14T09:54:53.995Z,5
2022-09-14T09:55:53.911Z,5
2022-09-14T09:56:53.901Z,5
2022-09-14T09:57:53.914Z,5
2022-09-14T09:58:53.898Z,5
2022-09-14T09:59:53.903Z,5
2022-09-14T10:00:53.926Z,5
2022-09-14T10:01:53.963Z,5
2022-09-14T10:02:53.952Z,5
2022-09-14T10:03:53.899Z,5
2022-09-14T10:04:53.918Z,5
2022-09-14T10:05:53.932Z,5
2022-09-14T10:06:53.895Z,5
2022-09-14T10:07:53.964Z,5
2022-09-14T10:08:53.894Z,6
2022-09-14T10:09:53.907Z,6
2022-09-14T10:10:53.894Z,6
2022-09-14T10:11:53.900Z,7
2022-09-14T10:12:53.936Z,7
2022-09-14T10:13:53.905Z,7
2022-09-14T10:14:53.895Z,8
2022-09-14T10:15:53.965Z,7
2022-09-14T10:16:53.909Z,7
2022-09-14T10:17:53.896Z,6
2022-09-14T10:18:54.259Z,7
2022-09-14T10:19:53.916Z,7
2022-09-14T10:20:53.897Z,7
2022-09-14T10:21:53.899Z,7
2022-09-14T10:22:53.916Z,7
2022-09-14T10:23:53.904Z,7
2022-09-14T10:24:53.908Z,7
2022-09-14T10:25:54.020Z,7
2022-09-14T10:26:53.904Z,7
2022-09-14T10:27:53.912Z,7
2022-09-14T10:28:53.918Z,7
2022-09-14T10:29:53.917Z,7
2022-09-14T10:30:53.992Z,8
2022-09-14T10:31:53.919Z,7
2022-09-14T10:32:53.906Z,7
2022-09-14T10:33:53.896Z,7
2022-09-14T10:34:53.900Z,7
2022-09-14T10:35:53.907Z,7
2022-09-14T10:36:53.962Z,7
2022-09-14T10:37:53.896Z,7
2022-09-14T10:38:53.934Z,7
2022-09-14T10:39:54.043Z,7
2022-09-14T10:40:53.903Z,7
2022-09-14T10:41:53.981Z,8
2022-09-14T10:42:53.909Z,7
2022-09-14T10:43:53.951Z,7
2022-09-14T10:44:53.913Z,7
2022-09-14T10:45:53.917Z,7
2022-09-14T10:46:53.956Z,7
2022-09-14T10:47:53.908Z,7
2022-09-14T10:48:53.921Z,7
2022-09-14T10:49:53.920Z,7
2022-09-14T10:50:53.911Z,7
2022-09-14T10:51:54.003Z,6
2022-09-14T10:52:53.913Z,7
2022-09-14T10:53:53.933Z,6
2022-09-14T10:54:54.446Z,7
2022-09-14T10:55:53.920Z,6
2022-09-14T10:56:54.036Z,6
2022-09-14T10:57:53.912Z,6
2022-09-14T10:58:53.915Z,6
2022-09-14T10:59:53.918Z,6
2022-09-14T11:00:53.913Z,6
2022-09-14T11:01:54.067Z,6
2022-09-14T11:02:53.999Z,6
2022-09-14T11:03:54.052Z,6
2022-09-14T11:04:53.923Z,6
2022-09-14T11:05:53.960Z,5
2022-09-14T11:06:53.897Z,6
2022-09-14T11:07:53.920Z,6
2022-09-14T11:08:53.924Z,6
2022-09-14T11:09:53.913Z,6
2022-09-14T11:10:54.001Z,6
2022-09-14T11:11:53.916Z,6
2022-09-14T11:12:53.918Z,6
2022-09-14T11:13:53.910Z,6
2022-09-14T11:14:53.924Z,6
2022-09-14T11:15:54.007Z,6
2022-09-14T11:16:54.066Z,6
2022-09-14T11:17:53.953Z,6
2022-09-14T11:18:53.917Z,6
2022-09-14T11:19:53.911Z,6
2022-09-14T11:20:53.907Z,6
2022-09-14T11:21:53.916Z,6
2022-09-14T11:22:53.992Z,6
2022-09-14T11:23:53.908Z,6
2022-09-14T11:24:53.917Z,6
2022-09-14T11:25:53.923Z,5
2022-09-14T11:26:54.064Z,5
2022-09-14T11:27:53.939Z,5
2022-09-14T11:28:53.929Z,6
2022-09-14T11:29:53.933Z,5
2022-09-14T11:30:53.978Z,5
2022-09-14T11:32:16.986Z,5
2022-09-14T11:32:53.937Z,4
2022-09-14T11:33:53.921Z,4
2022-09-14T11:34:53.921Z,4
2022-09-14T11:35:53.923Z,4
2022-09-14T11:36:53.938Z,4
2022-09-14T11:37:53.939Z,4
2022-09-14T11:38:53.932Z,4
2022-09-14T11:39:53.971Z,4
2022-09-14T11:40:54.044Z,4
2022-09-14T11:41:53.933Z,4
2022-09-14T11:42:53.916Z,4
2022-09-14T11:43:53.927Z,4
2022-09-14T11:44:53.948Z,4
2022-09-14T11:45:53.999Z,3
2022-09-14T11:46:56.592Z,3
2022-09-14T11:47:53.913Z,3
2022-09-14T11:48:54.134Z,3
2022-09-14T11:49:53.931Z,3
2022-09-14T11:50:53.919Z,3
2022-09-14T11:51:53.914Z,2
2022-09-14T11:52:53.930Z,3
2022-09-14T11:53:53.913Z,2
2022-09-14T11:54:53.925Z,3
2022-09-14T11:55:53.946Z,2
2022-09-14T11:56:53.968Z,2
2022-09-14T11:57:54.322Z,2
2022-09-14T11:58:54.078Z,2
2022-09-14T11:59:53.926Z,2
2022-09-14T12:00:53.928Z,2
2022-09-14T12:01:53.939Z,2
2022-09-14T12:02:53.991Z,2
2022-09-14T12:03:54.061Z,2
2022-09-14T12:04:53.930Z,2
2022-09-14T12:05:53.953Z,2
2022-09-14T12:06:53.960Z,2
2022-09-14T12:07:53.926Z,2
2022-09-14T12:08:53.932Z,2
2022-09-14T12:09:53.938Z,2
2022-09-14T12:10:53.946Z,2
2022-09-14T12:11:53.935Z,2
2022-09-14T12:12:53.926Z,2
2022-09-14T12:13:53.930Z,2
2022-09-14T12:14:53.958Z,2
2022-09-14T12:15:53.973Z,2
2022-09-14T12:16:53.942Z,2
2022-09-14T12:17:53.940Z,2
2022-09-14T12:18:54.019Z,2
2022-09-14T12:19:53.950Z,2
2022-09-14T12:20:53.926Z,2
2022-09-14T12:21:53.940Z,2
2022-09-14T12:22:53.929Z,3
2022-09-14T12:23:53.967Z,2
2022-09-14T12:24:53.946Z,2
2022-09-14T12:25:53.940Z,2
2022-09-14T12:26:53.951Z,2
2022-09-14T12:27:53.942Z,2
2022-09-14T12:28:53.948Z,2
2022-09-14T12:29:54.036Z,2
2022-09-14T12:30:54.004Z,2
2022-09-14T12:31:53.939Z,2
2022-09-14T12:32:53.955Z,2
2022-09-14T12:33:53.954Z,2
2022-09-14T12:34:53.933Z,3
2022-09-14T12:35:53.984Z,3
2022-09-14T12:36:53.939Z,3
2022-09-14T12:37:53.944Z,3
2022-09-14T12:38:53.956Z,3
2022-09-14T12:39:54.019Z,3
2022-09-14T12:40:53.949Z,2
2022-09-14T12:41:53.948Z,3
2022-09-14T12:42:53.944Z,3
2022-09-14T12:43:53.938Z,3
2022-09-14T12:44:53.952Z,4
2022-09-14T12:45:53.999Z,3
2022-09-14T12:46:53.961Z,3
2022-09-14T12:47:53.979Z,2
2022-09-14T12:48:53.945Z,2
2022-09-14T12:49:53.943Z,2
2022-09-14T12:50:53.950Z,2
2022-09-14T12:51:53.944Z,2
2022-09-14T12:52:54.029Z,3
2022-09-14T12:53:53.943Z,2
2022-09-14T12:54:53.937Z,2
2022-09-14T12:55:53.942Z,2
2022-09-14T12:56:53.952Z,2
2022-09-14T12:57:53.948Z,2
2022-09-14T12:58:53.954Z,2
2022-09-14T12:59:53.935Z,2
2022-09-14T13:00:53.968Z,2
2022-09-14T13:01:54.057Z,2
2022-09-14T13:02:54.010Z,2
2022-09-14T13:03:53.944Z,2
2022-09-14T13:04:53.940Z,2
2022-09-14T13:05:53.964Z,2
2022-09-14T13:06:53.951Z,2
2022-09-14T13:07:53.950Z,2
2022-09-14T13:08:53.942Z,2
2022-09-14T13:09:54.014Z,2
2022-09-14T13:10:53.964Z,2
2022-09-14T13:11:53.953Z,2
2022-09-14T13:12:53.955Z,2
2022-09-14T13:13:53.957Z,2
2022-09-14T13:14:53.949Z,2
2022-09-14T13:15:53.998Z,2
2022-09-14T13:16:53.952Z,2
2022-09-14T13:17:53.956Z,2
2022-09-14T13:18:53.939Z,2
2022-09-14T13:19:53.955Z,2
2022-09-14T13:20:53.959Z,3
2022-09-14T13:21:53.951Z,2
2022-09-14T13:22:53.950Z,2
2022-09-14T13:23:54.006Z,2
2022-09-14T13:24:53.943Z,2
2022-09-14T13:25:53.952Z,2
2022-09-14T13:26:53.954Z,3
2022-09-14T13:27:53.948Z,3
2022-09-14T13:28:53.950Z,2
2022-09-14T13:29:53.936Z,2
2022-09-14T13:30:54.048Z,2
2022-09-14T13:31:54.053Z,2
2022-09-14T13:32:53.937Z,3
2022-09-14T13:33:53.957Z,2
2022-09-14T13:34:53.950Z,3
2022-09-14T13:35:53.965Z,2
2022-09-14T13:36:53.964Z,2
2022-09-14T13:37:53.959Z,3
2022-09-14T13:38:53.960Z,3
2022-09-14T13:39:54.010Z,3
2022-09-14T13:40:53.969Z,3
2022-09-14T13:41:53.949Z,3
2022-09-14T13:42:53.965Z,3
2022-09-14T13:43:53.958Z,3
2022-09-14T13:44:53.960Z,3
2022-09-14T13:45:54.017Z,2
2022-09-14T13:46:53.957Z,3
2022-09-14T13:47:53.957Z,3
2022-09-14T13:48:53.973Z,3
2022-09-14T13:49:53.975Z,4
2022-09-14T13:50:53.962Z,3
2022-09-14T13:51:53.960Z,3
2022-09-14T13:53:03.488Z,3
2022-09-14T13:53:53.979Z,3
2022-09-14T13:54:53.955Z,3
2022-09-14T13:55:53.979Z,4
2022-09-14T13:57:53.970Z,4
2022-09-14T13:58:53.969Z,4
2022-09-14T13:59:53.958Z,4
2022-09-14T14:00:54.016Z,6
2022-09-14T14:01:54.176Z,6
2022-09-14T14:02:54.173Z,6
2022-09-14T14:03:53.963Z,5
2022-09-14T14:04:53.954Z,5
2022-09-14T14:05:53.958Z,5
2022-09-14T14:06:53.962Z,6
2022-09-14T14:07:53.972Z,5
2022-09-14T14:08:53.957Z,5
2022-09-14T14:09:53.965Z,5
2022-09-14T14:10:53.985Z,5
2022-09-14T14:11:53.970Z,5
2022-09-14T14:12:53.963Z,5
2022-09-14T14:13:53.961Z,5
2022-09-14T14:14:54.056Z,6
2022-09-14T14:15:53.967Z,6
2022-09-14T14:16:54.042Z,6
2022-09-14T14:17:53.980Z,6
2022-09-14T14:18:53.965Z,6
2022-09-14T14:19:53.963Z,6
2022-09-14T14:20:53.960Z,5
2022-09-14T14:21:54.022Z,6
2022-09-14T14:22:53.968Z,5
2022-09-14T14:24:12.187Z,5
2022-09-14T14:25:14.387Z,6
2022-09-14T14:25:53.972Z,5
2022-09-14T14:26:53.962Z,5
2022-09-14T14:27:53.965Z,6
2022-09-14T14:28:54.097Z,5
2022-09-14T14:29:53.959Z,5
2022-09-14T14:30:54.120Z,5
2022-09-14T14:31:54.305Z,5
2022-09-14T14:32:53.988Z,6
2022-09-14T14:33:54.171Z,5